ADDS METAR Data INFO
IDs: Format: Raw Decoded Include TAF

Data at: 1528 UTC 18 Jun 2018

KBRO 181453Z 12006KT 10SM FEW027 BKN110 27/26 A2986 RMK AO2 SLP111 60005 T02720261 51007